createdAt,value
2023-02-19T00:00:52.696Z,4.27
2023-02-19T00:03:24.680Z,4.24
2023-02-19T00:05:58.567Z,4.15
2023-02-19T00:08:32.105Z,4.16
2023-02-19T00:11:09.439Z,4.22
2023-02-19T00:13:48.124Z,4.05
2023-02-19T00:16:26.989Z,4.04
2023-02-19T00:19:02.632Z,4.09
2023-02-19T00:21:34.997Z,4.16
2023-02-19T00:24:12.524Z,4.10
2023-02-19T00:26:50.900Z,4.03
2023-02-19T00:29:25.588Z,4.03
2023-02-19T00:31:57.472Z,4.02
2023-02-19T00:34:31.600Z,4.09
2023-02-19T00:37:07.756Z,4.19
2023-02-19T00:39:45.470Z,4.12
2023-02-19T00:42:18.560Z,3.97
2023-02-19T00:44:52.009Z,3.96
2023-02-19T00:47:25.594Z,3.93
2023-02-19T00:49:57.341Z,4.04
2023-02-19T00:52:29.582Z,4.03
2023-02-19T00:55:01.857Z,4.03
2023-02-19T00:57:33.529Z,3.95
2023-02-19T01:00:06.928Z,3.92
2023-02-19T01:02:38.564Z,3.85
2023-02-19T01:05:11.512Z,3.87
2023-02-19T01:07:43.222Z,3.88
2023-02-19T01:10:14.874Z,3.86
2023-02-19T01:12:46.750Z,3.94
2023-02-19T01:15:18.795Z,3.99
2023-02-19T01:17:50.538Z,3.84
2023-02-19T01:20:22.170Z,3.80
2023-02-19T01:22:55.686Z,3.74
2023-02-19T01:25:27.635Z,3.76
2023-02-19T01:28:02.296Z,3.86
2023-02-19T01:30:39.660Z,3.97
2023-02-19T01:33:11.939Z,3.96
2023-02-19T01:35:46.582Z,4.00
2023-02-19T01:38:20.436Z,3.84
2023-02-19T01:41:00.002Z,3.76
2023-02-19T01:43:33.436Z,3.81
2023-02-19T01:46:05.236Z,3.96
2023-02-19T01:48:39.148Z,3.87
2023-02-19T01:51:15.848Z,3.80
2023-02-19T01:53:51.623Z,3.66
2023-02-19T01:56:27.993Z,3.74
2023-02-19T01:59:00.436Z,3.76
2023-02-19T02:01:32.551Z,3.73
2023-02-19T02:04:05.686Z,3.79
2023-02-19T02:06:42.492Z,3.79
2023-02-19T02:09:31.992Z,3.84
2023-02-19T02:12:03.720Z,3.75
2023-02-19T02:14:39.308Z,3.73
2023-02-19T02:17:18.529Z,3.70
2023-02-19T02:20:19.576Z,3.75
2023-02-19T02:22:59.305Z,3.74
2023-02-19T02:26:02.963Z,3.80
2023-02-19T02:29:11.082Z,3.97
2023-02-19T02:31:45.855Z,4.05
2023-02-19T02:34:19.775Z,4.01
2023-02-19T02:36:56.016Z,3.84
2023-02-19T02:39:29.629Z,3.78
2023-02-19T02:42:19.730Z,3.79
2023-02-19T02:45:05.221Z,3.87
2023-02-19T02:47:45.190Z,3.86
2023-02-19T02:50:21.578Z,3.92
2023-02-19T02:53:14.476Z,4.12
2023-02-19T02:55:53.512Z,4.24
2023-02-19T02:58:26.838Z,4.12
2023-02-19T03:01:20.299Z,4.00
2023-02-19T03:03:56.952Z,4.02
2023-02-19T03:06:31.407Z,3.97
2023-02-19T03:09:09.588Z,3.99
2023-02-19T03:12:02.764Z,4.04
2023-02-19T03:14:58.441Z,4.08
2023-02-19T03:17:51.060Z,4.13
2023-02-19T03:20:28.873Z,4.19
2023-02-19T03:23:02.648Z,4.21
2023-02-19T03:25:54.002Z,4.17
2023-02-19T03:28:43.173Z,4.21
2023-02-19T03:31:20.280Z,4.16
2023-02-19T03:33:58.688Z,4.21
2023-02-19T03:36:37.200Z,4.19
2023-02-19T03:39:13.714Z,4.11
2023-02-19T03:41:54.332Z,4.12
2023-02-19T03:44:34.886Z,4.06
2023-02-19T03:47:13.133Z,4.02
2023-02-19T03:49:50.293Z,4.15
2023-02-19T03:52:29.068Z,4.14
2023-02-19T03:55:05.196Z,4.03
2023-02-19T03:57:50.306Z,3.83
2023-02-19T04:00:23.009Z,3.80
2023-02-19T04:02:59.920Z,3.71
2023-02-19T04:05:35.275Z,3.76
2023-02-19T04:08:12.987Z,3.79
2023-02-19T04:10:49.200Z,3.74
2023-02-19T04:13:27.616Z,3.74
2023-02-19T04:16:07.141Z,3.82
2023-02-19T04:18:43.352Z,3.84
2023-02-19T04:21:16.636Z,3.89
2023-02-19T04:23:52.798Z,3.74
2023-02-19T04:26:26.425Z,3.78
2023-02-19T04:36:22.379Z,3.96
2023-02-19T04:38:55.723Z,3.98
2023-02-19T04:41:28.318Z,3.87
2023-02-19T04:43:59.848Z,3.81
2023-02-19T04:46:31.452Z,3.75
2023-02-19T04:49:04.745Z,3.70
2023-02-19T04:51:36.600Z,3.76
2023-02-19T04:54:08.671Z,3.79
2023-02-19T04:56:41.087Z,3.64
2023-02-19T04:59:13.325Z,3.67
2023-02-19T05:01:46.854Z,3.73
2023-02-19T05:04:19.352Z,3.62
2023-02-19T05:06:51.642Z,3.57
2023-02-19T05:09:24.777Z,3.59
2023-02-19T05:11:58.304Z,3.58
2023-02-19T05:14:32.989Z,3.52
2023-02-19T05:17:04.782Z,3.52
2023-02-19T05:19:37.986Z,3.62
2023-02-19T05:22:09.734Z,3.73
2023-02-19T05:24:41.458Z,3.71
2023-02-19T05:27:13.395Z,3.59
2023-02-19T05:29:45.368Z,3.60
2023-02-19T05:32:17.448Z,3.62
2023-02-19T05:34:51.620Z,3.72
2023-02-19T05:37:23.594Z,3.74
2023-02-19T05:39:55.475Z,3.73
2023-02-19T05:42:29.565Z,3.71
2023-02-19T05:45:03.741Z,3.66
2023-02-19T05:47:35.670Z,3.62
2023-02-19T05:50:08.157Z,3.58
2023-02-19T05:52:40.124Z,3.54
2023-02-19T05:55:12.488Z,3.54
2023-02-19T05:57:46.148Z,3.71
2023-02-19T06:00:20.748Z,3.75
2023-02-19T06:02:55.227Z,3.63
2023-02-19T06:05:28.192Z,3.60
2023-02-19T06:08:00.042Z,3.47
2023-02-19T06:10:31.632Z,3.52
2023-02-19T06:13:05.152Z,3.61
2023-02-19T06:15:37.626Z,3.63
2023-02-19T06:18:11.596Z,3.52
2023-02-19T06:20:46.361Z,3.53
2023-02-19T06:23:18.076Z,3.66
2023-02-19T06:25:52.499Z,3.72
2023-02-19T06:28:24.493Z,3.70
2023-02-19T06:31:03.939Z,3.74
2023-02-19T06:33:36.271Z,3.76
2023-02-19T06:36:09.446Z,3.81
2023-02-19T06:38:44.960Z,3.83
2023-02-19T06:41:22.448Z,3.92
2023-02-19T06:43:56.061Z,3.88
2023-02-19T06:46:30.742Z,4.03
2023-02-19T06:49:02.553Z,4.04
2023-02-19T06:51:34.962Z,3.99
2023-02-19T06:54:26.458Z,3.95
2023-02-19T06:56:59.984Z,3.99
2023-02-19T06:59:33.388Z,4.00
2023-02-19T07:02:05.280Z,4.11
2023-02-19T07:04:37.395Z,4.11
2023-02-19T07:07:15.810Z,4.03
2023-02-19T07:09:47.799Z,4.05
2023-02-19T07:12:19.785Z,4.04
2023-02-19T07:14:52.829Z,4.05
2023-02-19T07:17:24.745Z,4.10
2023-02-19T07:19:56.345Z,4.08
2023-02-19T07:22:29.065Z,4.09
2023-02-19T07:25:01.853Z,4.17
2023-02-19T07:27:35.867Z,4.19
2023-02-19T07:30:09.065Z,4.10
2023-02-19T07:32:45.922Z,4.09
2023-02-19T07:35:18.395Z,4.13
2023-02-19T07:37:50.222Z,4.29
2023-02-19T07:40:22.543Z,4.21
2023-02-19T07:42:57.938Z,4.13
2023-02-19T07:45:30.430Z,4.05
2023-02-19T07:48:02.659Z,4.16
2023-02-19T07:50:39.086Z,4.28
2023-02-19T07:53:12.087Z,4.28
2023-02-19T07:55:44.194Z,4.37
2023-02-19T07:58:16.065Z,4.37
2023-02-19T08:00:48.142Z,4.33
2023-02-19T08:03:20.742Z,4.28
2023-02-19T08:05:54.178Z,4.32
2023-02-19T08:08:29.397Z,4.43
2023-02-19T08:11:24.769Z,4.51
2023-02-19T08:13:56.698Z,4.54
2023-02-19T08:16:42.124Z,4.59
2023-02-19T08:19:14.986Z,4.68
2023-02-19T08:21:48.546Z,4.78
2023-02-19T08:24:20.350Z,4.75
2023-02-19T08:26:52.123Z,4.82
2023-02-19T08:29:23.785Z,4.87
2023-02-19T08:31:55.531Z,4.94
2023-02-19T08:34:27.581Z,4.91
2023-02-19T08:37:02.889Z,4.90
2023-02-19T08:39:36.280Z,4.93
2023-02-19T08:42:12.543Z,5.08
2023-02-19T08:44:46.067Z,5.07
2023-02-19T08:47:18.429Z,5.03
2023-02-19T08:49:50.582Z,4.96
2023-02-19T08:52:22.740Z,4.94
2023-02-19T08:54:54.345Z,4.94
2023-02-19T08:57:26.839Z,5.05
2023-02-19T08:59:58.663Z,5.05
2023-02-19T09:02:31.454Z,5.06
2023-02-19T09:05:05.896Z,5.09
2023-02-19T09:07:37.760Z,5.21
2023-02-19T09:10:12.003Z,5.28
2023-02-19T09:12:44.428Z,5.35
2023-02-19T09:15:16.606Z,5.38
2023-02-19T09:17:52.388Z,5.44
2023-02-19T09:20:24.635Z,5.47
2023-02-19T09:23:00.463Z,5.53
2023-02-19T09:25:34.236Z,5.53
2023-02-19T09:28:06.636Z,5.66
2023-02-19T09:30:38.583Z,5.79
2023-02-19T09:33:11.580Z,5.88
2023-02-19T09:35:43.738Z,5.95
2023-02-19T09:38:16.091Z,6.00
2023-02-19T09:40:48.084Z,6.06
2023-02-19T09:43:24.116Z,6.07
2023-02-19T09:46:03.306Z,6.00
2023-02-19T09:48:35.675Z,6.05
2023-02-19T09:51:10.484Z,6.09
2023-02-19T09:53:48.269Z,6.04
2023-02-19T09:56:25.003Z,6.05
2023-02-19T09:59:01.283Z,6.13
2023-02-19T10:01:48.914Z,6.08
2023-02-19T10:04:27.400Z,6.10
2023-02-19T10:07:04.630Z,6.21
2023-02-19T10:09:37.887Z,6.16
2023-02-19T10:12:26.603Z,6.00
2023-02-19T10:15:04.132Z,6.00
2023-02-19T10:17:38.116Z,6.03
2023-02-19T10:20:19.247Z,6.08
2023-02-19T10:22:59.899Z,6.09
2023-02-19T10:25:36.792Z,6.07
2023-02-19T10:28:16.450Z,6.18
2023-02-19T10:30:58.040Z,6.18
2023-02-19T10:33:36.609Z,6.12
2023-02-19T10:36:31.781Z,6.01
2023-02-19T10:39:12.351Z,6.11
2023-02-19T10:41:52.542Z,6.13
2023-02-19T10:44:40.897Z,6.14
2023-02-19T10:47:25.408Z,6.10
2023-02-19T10:50:03.313Z,6.05
2023-02-19T10:52:46.148Z,6.06
2023-02-19T10:55:30.840Z,6.17
2023-02-19T10:58:26.487Z,6.42
2023-02-19T11:01:17.333Z,6.59
2023-02-19T11:03:50.437Z,6.63
2023-02-19T11:06:30.316Z,6.43
2023-02-19T11:09:04.229Z,6.39
2023-02-19T11:11:43.060Z,6.37
2023-02-19T11:14:22.351Z,6.47
2023-02-19T11:17:13.686Z,6.53
2023-02-19T11:19:52.982Z,6.63
2023-02-19T11:22:34.939Z,6.73
2023-02-19T11:25:09.722Z,6.86
2023-02-19T11:27:55.567Z,6.82
2023-02-19T11:30:40.584Z,6.65
2023-02-19T11:33:27.636Z,6.63
2023-02-19T11:36:20.145Z,6.59
2023-02-19T11:39:00.215Z,6.66
2023-02-19T11:41:52.856Z,6.64
2023-02-19T11:44:39.794Z,6.65
2023-02-19T11:47:45.819Z,6.70
2023-02-19T11:50:26.798Z,6.63
2023-02-19T11:53:16.182Z,6.63
2023-02-19T11:56:00.735Z,6.61
2023-02-19T11:59:00.652Z,6.55
2023-02-19T12:01:48.800Z,6.68
2023-02-19T12:05:15.433Z,6.61
2023-02-19T12:08:18.976Z,6.47
2023-02-19T12:11:07.473Z,6.46
2023-02-19T12:13:55.947Z,6.46
2023-02-19T12:16:50.522Z,6.49
2023-02-19T12:19:40.641Z,6.43
2023-02-19T12:22:31.560Z,6.52
2023-02-19T12:25:37.829Z,6.57
2023-02-19T12:28:27.394Z,6.67
2023-02-19T12:34:51.332Z,6.79
2023-02-19T12:37:40.400Z,6.94
2023-02-19T12:40:30.355Z,7.21
2023-02-19T12:43:16.050Z,7.34
2023-02-19T12:45:58.664Z,7.50
2023-02-19T12:48:38.736Z,7.63
2023-02-19T12:51:17.797Z,7.39
2023-02-19T12:53:58.449Z,7.39
2023-02-19T12:56:38.569Z,7.40
2023-02-19T12:59:17.045Z,7.36
2023-02-19T13:01:55.464Z,7.46
2023-02-19T13:04:36.639Z,7.33
2023-02-19T13:07:13.432Z,7.07
2023-02-19T13:09:51.036Z,6.96
2023-02-19T13:12:27.555Z,6.93
2023-02-19T13:15:06.134Z,6.88
2023-02-19T13:17:45.033Z,6.92
2023-02-19T13:20:25.240Z,7.01
2023-02-19T13:23:26.663Z,7.06
2023-02-19T13:26:25.040Z,7.25
2023-02-19T13:29:10.925Z,7.41
2023-02-19T13:32:17.856Z,7.33
2023-02-19T13:35:01.920Z,7.32
2023-02-19T13:37:39.856Z,7.31
2023-02-19T13:40:24.613Z,7.13
2023-02-19T13:43:00.096Z,6.98
2023-02-19T13:45:41.206Z,7.03
2023-02-19T13:48:31.148Z,7.08
2023-02-19T13:51:37.949Z,7.30
2023-02-19T13:54:26.206Z,7.30
2023-02-19T13:57:40.257Z,7.26
2023-02-19T14:00:54.839Z,7.19
2023-02-19T14:03:43.272Z,7.19
2023-02-19T14:06:16.533Z,7.13
2023-02-19T14:08:58.450Z,7.08
2023-02-19T14:12:07.588Z,7.07
2023-02-19T14:14:42.764Z,7.03
2023-02-19T14:17:42.717Z,7.00
2023-02-19T14:20:46.337Z,7.03
2023-02-19T14:23:28.305Z,7.16
2023-02-19T14:26:05.795Z,7.03
2023-02-19T14:28:43.927Z,6.83
2023-02-19T14:31:25.305Z,6.86
2023-02-19T14:34:03.667Z,6.75
2023-02-19T14:36:50.016Z,6.66
2023-02-19T14:39:25.737Z,6.65
2023-02-19T14:42:03.441Z,6.59
2023-02-19T14:44:49.753Z,6.50
2023-02-19T14:47:25.552Z,6.50
2023-02-19T14:50:01.707Z,6.50
2023-02-19T14:52:45.127Z,6.63
2023-02-19T14:55:27.273Z,6.56
2023-02-19T14:58:03.240Z,6.51
2023-02-19T15:00:39.576Z,6.43
2023-02-19T15:03:31.397Z,6.45
2023-02-19T15:06:20.663Z,6.35
2023-02-19T15:08:59.285Z,6.36
2023-02-19T15:11:38.257Z,6.38
2023-02-19T15:14:21.335Z,6.21
2023-02-19T15:16:58.670Z,6.18
2023-02-19T15:19:36.014Z,6.19
2023-02-19T15:22:10.095Z,6.18
2023-02-19T15:24:51.095Z,6.04
2023-02-19T15:27:27.136Z,5.96
2023-02-19T15:30:02.196Z,5.94
2023-02-19T15:32:38.412Z,6.01
2023-02-19T15:35:27.968Z,5.99
2023-02-19T15:38:01.211Z,5.96
2023-02-19T15:40:35.889Z,5.92
2023-02-19T15:43:23.815Z,5.85
2023-02-19T15:46:02.549Z,5.83
2023-02-19T15:48:43.742Z,5.79
2023-02-19T15:51:21.698Z,5.90
2023-02-19T15:54:01.128Z,5.94
2023-02-19T15:56:52.347Z,5.89
2023-02-19T15:59:32.850Z,5.83
2023-02-19T16:02:06.116Z,5.80
2023-02-19T16:04:40.713Z,5.70
2023-02-19T16:07:31.120Z,5.64
2023-02-19T16:10:24.795Z,5.63
2023-02-19T16:13:04.424Z,5.56
2023-02-19T16:15:38.512Z,5.42
2023-02-19T16:18:18.664Z,5.31
2023-02-19T16:20:58.015Z,5.32
2023-02-19T16:23:33.595Z,5.32
2023-02-19T16:26:09.871Z,5.29
2023-02-19T16:28:45.598Z,5.22
2023-02-19T16:31:27.453Z,5.22
2023-02-19T16:34:29.028Z,5.20
2023-02-19T16:37:02.760Z,5.19
2023-02-19T16:39:36.633Z,5.30
2023-02-19T16:42:30.750Z,5.32
2023-02-19T16:45:04.702Z,5.22
2023-02-19T16:47:45.788Z,5.11
2023-02-19T16:50:22.266Z,5.06
2023-02-19T16:53:01.415Z,5.02
2023-02-19T16:55:38.832Z,4.95
2023-02-19T16:58:14.406Z,4.82
2023-02-19T17:00:48.539Z,4.81
2023-02-19T17:03:25.331Z,4.77
2023-02-19T17:05:59.761Z,4.67
2023-02-19T17:08:40.291Z,4.62
2023-02-19T17:11:17.796Z,4.59
2023-02-19T17:13:51.476Z,4.59
2023-02-19T17:16:28.141Z,4.55
2023-02-19T17:19:06.519Z,4.49
2023-02-19T17:21:40.342Z,4.42
2023-02-19T17:24:18.893Z,4.32
2023-02-19T17:26:52.824Z,4.29
2023-02-19T17:29:34.883Z,4.25
2023-02-19T17:32:09.438Z,4.26
2023-02-19T17:34:44.767Z,4.24
2023-02-19T17:37:23.296Z,4.22
2023-02-19T17:39:57.643Z,4.14
2023-02-19T17:42:32.200Z,4.08
2023-02-19T17:45:07.645Z,4.11
2023-02-19T17:47:45.646Z,4.11
2023-02-19T17:50:31.702Z,4.07
2023-02-19T17:53:05.982Z,4.02
2023-02-19T17:55:40.949Z,3.98
2023-02-19T17:58:20.740Z,3.91
2023-02-19T18:00:54.392Z,3.88
2023-02-19T18:03:27.691Z,3.81
2023-02-19T18:06:07.664Z,3.79
2023-02-19T18:08:43.058Z,3.83
2023-02-19T18:11:16.505Z,3.78
2023-02-19T18:13:57.737Z,3.74
2023-02-19T18:16:34.137Z,3.69
2023-02-19T18:19:15.420Z,3.65
2023-02-19T18:21:55.303Z,3.60
2023-02-19T18:24:28.452Z,3.66
2023-02-19T18:27:03.453Z,3.72
2023-02-19T18:29:40.614Z,3.73
2023-02-19T18:32:16.360Z,3.71
2023-02-19T18:34:55.271Z,3.76
2023-02-19T18:37:30.961Z,3.62
2023-02-19T18:40:20.284Z,3.55
2023-02-19T18:42:54.639Z,3.43
2023-02-19T18:45:30.039Z,3.33
2023-02-19T18:48:04.505Z,3.29
2023-02-19T18:50:38.954Z,3.29
2023-02-19T18:53:13.973Z,3.33
2023-02-19T18:55:48.100Z,3.28
2023-02-19T18:58:27.569Z,3.23
2023-02-19T19:01:02.117Z,3.22
2023-02-19T19:03:39.684Z,3.33
2023-02-19T19:06:18.104Z,3.30
2023-02-19T19:08:55.957Z,3.20
2023-02-19T19:11:36.798Z,3.17
2023-02-19T19:14:18.655Z,3.30
2023-02-19T19:16:59.410Z,3.23
2023-02-19T19:19:35.616Z,3.26
2023-02-19T19:22:09.281Z,3.17
2023-02-19T19:24:42.322Z,3.10
2023-02-19T19:27:18.240Z,3.06
2023-02-19T19:29:51.454Z,2.92
2023-02-19T19:32:26.945Z,2.81
2023-02-19T19:35:01.507Z,2.80
2023-02-19T19:37:38.321Z,2.86
2023-02-19T19:40:18.272Z,2.86
2023-02-19T19:42:55.941Z,2.87
2023-02-19T19:45:34.046Z,2.84
2023-02-19T19:48:10.896Z,2.93
2023-02-19T19:50:45.838Z,2.91
2023-02-19T19:53:26.747Z,2.92
2023-02-19T19:56:02.000Z,2.90
2023-02-19T19:58:37.605Z,2.92
2023-02-19T20:01:12.312Z,2.91
2023-02-19T20:03:47.866Z,2.85
2023-02-19T20:06:29.511Z,2.80
2023-02-19T20:09:04.965Z,2.81
2023-02-19T20:11:49.500Z,2.76
2023-02-19T20:14:33.121Z,2.86
2023-02-19T20:17:08.944Z,2.88
2023-02-19T20:19:45.700Z,2.91
2023-02-19T20:22:24.158Z,2.90
2023-02-19T20:25:00.345Z,2.83
2023-02-19T20:27:36.517Z,2.64
2023-02-19T20:30:13.687Z,2.51
2023-02-19T20:33:08.216Z,2.40
2023-02-19T20:35:41.596Z,2.48
2023-02-19T20:38:19.725Z,2.65
2023-02-19T20:40:53.232Z,2.62
2023-02-19T20:43:28.720Z,2.59
2023-02-19T20:46:10.207Z,2.54
2023-02-19T20:48:44.455Z,2.43
2023-02-19T20:51:18.159Z,2.45
2023-02-19T20:53:53.499Z,2.37
2023-02-19T20:56:28.934Z,2.30
2023-02-19T20:59:07.332Z,2.26
2023-02-19T21:01:40.560Z,2.21
2023-02-19T21:04:19.057Z,2.18
2023-02-19T21:06:55.477Z,2.30
2023-02-19T21:09:35.573Z,2.31
2023-02-19T21:12:12.823Z,2.33
2023-02-19T21:14:50.503Z,2.42
2023-02-19T21:17:25.567Z,2.40
2023-02-19T21:19:58.134Z,2.34
2023-02-19T21:22:33.080Z,2.27
2023-02-19T21:25:14.028Z,2.25
2023-02-19T21:27:47.199Z,2.15
2023-02-19T21:30:30.123Z,2.00
2023-02-19T21:33:02.577Z,1.92
2023-02-19T21:35:35.133Z,1.95
2023-02-19T21:38:07.408Z,1.94
2023-02-19T21:40:43.500Z,1.86
2023-02-19T21:43:16.380Z,1.88
2023-02-19T21:45:49.888Z,1.93
2023-02-19T21:48:23.623Z,1.85
2023-02-19T21:50:55.801Z,1.75
2023-02-19T21:53:32.329Z,1.76
2023-02-19T21:56:04.246Z,1.80
2023-02-19T21:58:38.083Z,1.79
2023-02-19T22:01:10.569Z,1.79
2023-02-19T22:03:42.504Z,1.84
2023-02-19T22:06:14.488Z,1.77
2023-02-19T22:08:46.557Z,1.64
2023-02-19T22:11:18.812Z,1.63
2023-02-19T22:13:50.957Z,1.60
2023-02-19T22:16:23.037Z,1.70
2023-02-19T22:18:56.953Z,1.71
2023-02-19T22:21:32.829Z,1.69
2023-02-19T22:24:05.576Z,1.54
2023-02-19T22:26:39.560Z,1.72
2023-02-19T22:29:14.800Z,1.88
2023-02-19T22:31:46.946Z,2.00
2023-02-19T22:34:18.881Z,2.04
2023-02-19T22:36:50.779Z,1.97
2023-02-19T22:39:24.981Z,2.18
2023-02-19T22:41:56.856Z,2.17
2023-02-19T22:44:31.048Z,2.21
2023-02-19T22:47:04.136Z,2.18
2023-02-19T22:49:39.072Z,2.07
2023-02-19T22:52:12.287Z,2.04
2023-02-19T22:54:45.405Z,2.12
2023-02-19T22:57:17.280Z,2.10
2023-02-19T22:59:49.801Z,2.07
2023-02-19T23:02:21.521Z,2.04
2023-02-19T23:04:54.295Z,2.08
2023-02-19T23:07:26.263Z,2.11
2023-02-19T23:09:57.940Z,2.09
2023-02-19T23:12:29.886Z,2.07
2023-02-19T23:15:01.810Z,2.06
2023-02-19T23:17:34.729Z,2.12
2023-02-19T23:20:07.578Z,2.30
2023-02-19T23:22:40.696Z,2.38
2023-02-19T23:25:12.636Z,2.33
2023-02-19T23:27:45.079Z,2.38
2023-02-19T23:30:18.799Z,2.48
2023-02-19T23:32:50.830Z,2.56
2023-02-19T23:35:23.926Z,2.64
2023-02-19T23:37:56.745Z,2.66
2023-02-19T23:40:29.113Z,2.70
2023-02-19T23:43:01.110Z,2.72
2023-02-19T23:45:33.016Z,2.69
2023-02-19T23:48:06.456Z,2.75
2023-02-19T23:50:39.618Z,2.89
2023-02-19T23:53:11.711Z,2.87
2023-02-19T23:55:43.506Z,2.85
2023-02-19T23:58:16.091Z,2.89
